Time;durP1;ratioP1;P1;durP2;ratioP2;P2;SDS_P1;SDS_P2;PMS_P1;PMS_P2;Temp;Humidity;BMP_temperature;BMP_pressure;BME280_temperature;BME280_humidity;BME280_pressure;Samples;Min_cycle;Max_cycle;Signal;HPM_P1;HPM_P2
2021/12/26 00:00:20;;;;;;;14.60;9.90;;;;;;;4.00;100.00;97177.50;5097639;28;20211;-63
2021/12/26 00:02:46;;;;;;;14.27;9.73;;;;;;;3.96;100.00;97176.81;5097224;28;20674;-64
2021/12/26 00:05:13;;;;;;;14.33;9.87;;;;;;;3.92;100.00;97180.53;5100132;28;20590;-64
2021/12/26 00:07:40;;;;;;;13.97;10.33;;;;;;;3.94;100.00;97181.31;5102153;28;20213;-64
2021/12/26 00:10:11;;;;;;;15.60;10.83;;;;;;;4.02;100.00;97179.09;5104526;28;20211;-64
2021/12/26 00:12:38;;;;;;;15.37;10.60;;;;;;;3.96;100.00;97183.81;5097202;28;20210;-64
2021/12/26 00:15:06;;;;;;;15.97;11.43;;;;;;;3.98;100.00;97177.56;5099667;28;20214;-64
2021/12/26 00:17:32;;;;;;;15.40;11.27;;;;;;;3.95;100.00;97182.13;5096971;28;20242;-64
2021/12/26 00:19:59;;;;;;;18.70;12.47;;;;;;;3.90;100.00;97174.56;5097242;28;20213;-64
2021/12/26 00:22:25;;;;;;;18.20;12.47;;;;;;;3.87;100.00;97174.75;5095521;28;20215;-64
2021/12/26 00:24:52;;;;;;;18.30;12.00;;;;;;;3.93;100.00;97174.41;5108445;28;20661;-64
2021/12/26 00:27:20;;;;;;;17.80;12.13;;;;;;;3.99;100.00;97176.66;5111318;28;20219;-64
2021/12/26 00:29:47;;;;;;;20.10;13.93;;;;;;;4.02;100.00;97176.47;5111420;28;20249;-64
2021/12/26 00:32:13;;;;;;;18.83;12.83;;;;;;;4.03;100.00;97174.72;5111449;28;20211;-64
2021/12/26 00:34:40;;;;;;;18.93;12.63;;;;;;;4.04;100.00;97179.81;5108543;28;20669;-64
2021/12/26 00:37:08;;;;;;;19.23;13.67;;;;;;;4.06;100.00;97183.22;5111354;28;20229;-64
2021/12/26 00:39:35;;;;;;;19.93;14.03;;;;;;;4.08;100.00;97178.72;5111483;28;20214;-64
2021/12/26 00:42:02;;;;;;;20.20;13.30;;;;;;;4.09;100.00;97180.41;5111310;28;20234;-64
2021/12/26 00:44:29;;;;;;;21.53;14.03;;;;;;;4.06;100.00;97180.59;5108316;28;20214;-64
2021/12/26 00:46:56;;;;;;;23.07;14.20;;;;;;;4.01;100.00;97180.03;5111216;28;20214;-64
2021/12/26 00:49:23;;;;;;;22.47;14.70;;;;;;;4.06;100.00;97177.97;5109269;28;20584;-64
2021/12/26 00:51:51;;;;;;;22.87;15.17;;;;;;;4.06;100.00;97180.59;5111039;28;20214;-64
2021/12/26 00:54:20;;;;;;;21.50;14.07;;;;;;;4.09;100.00;97180.41;5107868;28;20595;-64
2021/12/26 00:56:47;;;;;;;25.33;15.53;;;;;;;3.96;100.00;97176.81;5111049;28;20235;-64
2021/12/26 00:59:13;;;;;;;25.97;16.77;;;;;;;4.04;100.00;97177.22;5102395;28;20238;-64
2021/12/26 01:01:41;;;;;;;23.47;14.50;;;;;;;4.05;100.00;97171.06;5096317;28;20231;-64
2021/12/26 01:04:08;;;;;;;23.20;15.53;;;;;;;4.06;100.00;97174.50;5099008;28;20585;-64
2021/12/26 01:06:34;;;;;;;22.90;15.03;;;;;;;4.06;100.00;97175.38;5096324;28;20211;-64
2021/12/26 01:09:01;;;;;;;24.43;15.57;;;;;;;4.08;100.00;97173.50;5101946;28;20209;-64
2021/12/26 01:11:36;;;;;;;24.87;15.13;;;;;;;4.02;100.00;97171.25;5096444;28;20215;-64
2021/12/26 01:14:04;;;;;;;26.00;16.50;;;;;;;3.93;100.00;97174.41;5106489;28;20300;-64
2021/12/26 01:16:32;;;;;;;25.80;16.60;;;;;;;3.99;100.00;97178.44;5111028;28;20270;-64
2021/12/26 01:19:03;;;;;;;25.13;15.10;;;;;;;4.03;100.00;97170.31;5110621;28;20210;-64
2021/12/26 01:21:30;;;;;;;26.00;16.83;;;;;;;4.08;100.00;97181.34;5109993;28;20210;-64
2021/12/26 01:23:59;;;;;;;25.13;16.30;;;;;;;4.05;100.00;97184.16;5109808;28;20214;-64
2021/12/26 01:26:26;;;;;;;26.53;16.67;;;;;;;4.02;100.00;97179.09;5095722;28;20731;-64
2021/12/26 01:28:54;;;;;;;24.57;15.93;;;;;;;4.07;100.00;97181.41;5096035;28;20213;-64
2021/12/26 01:31:20;;;;;;;28.10;17.07;;;;;;;4.00;100.00;97185.34;5096648;28;20246;-64
2021/12/26 01:33:50;;;;;;;25.40;16.23;;;;;;;3.96;100.00;97183.81;5097891;28;20219;-64
2021/12/26 01:36:18;;;;;;;24.77;16.50;;;;;;;3.90;100.00;97185.03;5095789;28;20212;-64
2021/12/26 01:38:44;;;;;;;28.67;17.47;;;;;;;3.91;100.00;97178.84;5095572;28;20230;-64
2021/12/26 01:41:11;;;;;;;24.70;16.67;;;;;;;3.92;100.00;97188.38;5094454;28;20225;-64
2021/12/26 01:43:40;;;;;;;24.57;16.00;;;;;;;3.89;100.00;97185.97;5097733;28;20586;-65
2021/12/26 01:46:06;;;;;;;25.20;15.70;;;;;;;3.87;100.00;97185.22;5095780;28;20553;-65
2021/12/26 01:48:33;;;;;;;26.10;16.67;;;;;;;3.88;100.00;97186.91;5095809;28;20227;-65
2021/12/26 01:51:00;;;;;;;27.00;15.87;;;;;;;3.84;100.00;97180.16;5096074;28;20210;-65
2021/12/26 01:53:35;;;;;;;24.23;15.17;;;;;;;3.86;100.00;97187.91;5097888;28;20592;-65
2021/12/26 01:56:02;;;;;;;25.77;15.77;;;;;;;3.84;100.00;97180.16;5095442;28;20248;-65
2021/12/26 01:58:30;;;;;;;21.83;14.70;;;;;;;3.81;100.00;97179.50;5095439;28;20239;-65
2021/12/26 02:00:58;;;;;;;23.63;15.63;;;;;;;3.82;100.00;97184.63;5096740;28;20222;-65
2021/12/26 02:03:26;;;;;;;24.07;15.30;;;;;;;3.84;100.00;97185.38;5096696;28;20217;-65
2021/12/26 02:05:53;;;;;;;24.10;15.13;;;;;;;3.89;100.00;97182.50;5093921;28;20215;-65
2021/12/26 02:08:20;;;;;;;22.07;14.57;;;;;;;3.86;100.00;97186.13;5106573;28;20202;-65
2021/12/26 02:10:48;;;;;;;23.27;14.63;;;;;;;3.81;100.00;97189.94;5099023;28;20664;-65
2021/12/26 02:13:15;;;;;;;23.87;14.47;;;;;;;3.85;100.00;97189.66;5096640;28;20207;-65
2021/12/26 02:15:42;;;;;;;22.73;14.53;;;;;;;3.88;100.00;97186.03;5095324;28;20210;-65
2021/12/26 02:18:09;;;;;;;24.43;15.83;;;;;;;3.93;100.00;97179.63;5095239;28;20234;-65
2021/12/26 02:20:50;;;;;;;25.57;15.20;;;;;;;3.89;100.00;97183.34;5096685;28;20215;-65
2021/12/26 02:23:22;;;;;;;22.90;14.30;;;;;;;3.92;100.00;97182.34;5095153;28;20693;-65
2021/12/26 02:28:33;;;;;;;23.70;14.50;;;;;;;3.89;100.00;97178.13;5097051;28;20256;-65
2021/12/26 02:30:59;;;;;;;20.90;13.23;;;;;;;3.83;100.00;97178.47;5096235;28;20239;-66
2021/12/26 02:33:26;;;;;;;19.53;12.97;;;;;;;3.93;100.00;97181.41;5094617;28;20218;-65
2021/12/26 02:35:54;;;;;;;21.57;13.80;;;;;;;3.90;100.00;97177.19;5099254;28;20221;-65
2021/12/26 02:38:21;;;;;;;22.70;13.60;;;;;;;3.86;100.00;97183.50;5106887;28;20230;-66
2021/12/26 02:40:50;;;;;;;19.23;12.90;;;;;;;3.81;100.00;97180.34;5100103;28;20580;-66
2021/12/26 02:43:17;;;;;;;19.30;12.20;;;;;;;3.86;100.00;97180.88;5098862;28;20245;-65
2021/12/26 02:45:44;;;;;;;18.47;12.80;;;;;;;3.84;100.00;97180.16;5099094;28;20212;-65
2021/12/26 02:48:11;;;;;;;19.47;12.50;;;;;;;3.88;100.00;97171.22;5100298;28;20570;-65
2021/12/26 02:50:39;;;;;;;20.23;13.43;;;;;;;3.85;100.00;97176.59;5099626;28;20238;-65
2021/12/26 02:53:09;;;;;;;21.17;13.63;;;;;;;3.87;100.00;97177.38;5098551;28;20219;-65
2021/12/26 02:55:36;;;;;;;20.27;13.13;;;;;;;3.91;100.00;97178.84;5098655;28;20585;-65
2021/12/26 02:58:06;;;;;;;18.73;12.33;;;;;;;3.92;100.00;97177.94;5098678;28;20243;-66
2021/12/26 03:00:36;;;;;;;19.43;12.50;;;;;;;3.93;100.00;97177.03;5098922;28;20211;-66
2021/12/26 03:03:05;;;;;;;20.27;13.57;;;;;;;3.96;100.00;97173.34;5098397;28;20215;-66
2021/12/26 03:05:37;;;;;;;19.00;12.67;;;;;;;3.97;100.00;97175.88;5098992;28;20212;-66
2021/12/26 03:08:05;;;;;;;19.07;13.00;;;;;;;3.96;100.00;97168.97;5106140;28;20577;-66
2021/12/26 03:10:33;;;;;;;19.73;13.47;;;;;;;4.01;100.00;97176.56;5098514;28;20215;-66
2021/12/26 03:13:03;;;;;;;20.20;13.10;;;;;;;4.03;100.00;97177.31;5098457;28;20220;-66
2021/12/26 03:15:32;;;;;;;20.53;12.80;;;;;;;4.02;100.00;97179.09;5098094;28;20216;-66
2021/12/26 03:17:59;;;;;;;21.23;13.70;;;;;;;4.02;100.00;97184.31;5110514;28;20235;-66
2021/12/26 03:20:30;;;;;;;19.27;12.97;;;;;;;4.01;100.00;97179.16;5113074;28;20221;-65
2021/12/26 03:22:59;;;;;;;21.10;13.43;;;;;;;4.04;100.00;97182.44;5112698;28;20218;-66
2021/12/26 03:25:26;;;;;;;20.20;13.53;;;;;;;4.03;100.00;97187.78;5110760;28;21588;-66
2021/12/26 03:27:54;;;;;;;19.07;12.60;;;;;;;4.04;100.00;97192.91;5110921;28;20588;-66
2021/12/26 03:30:24;;;;;;;19.23;12.27;;;;;;;4.06;100.00;97190.19;5112794;28;20235;-66
2021/12/26 03:32:51;;;;;;;18.80;12.57;;;;;;;4.06;100.00;97191.06;5112652;28;20213;-66
2021/12/26 03:35:18;;;;;;;19.33;12.43;;;;;;;4.09;100.00;97190.88;5111547;28;20215;-66
2021/12/26 03:37:46;;;;;;;19.50;13.10;;;;;;;4.09;100.00;97190.88;5110866;28;20246;-66
2021/12/26 03:40:13;;;;;;;22.23;13.83;;;;;;;4.12;100.00;97197.69;5112856;28;20249;-66
2021/12/26 03:42:41;;;;;;;23.67;14.17;;;;;;;4.05;100.00;97194.59;5112665;28;20238;-66
2021/12/26 03:45:10;;;;;;;21.90;14.63;;;;;;;4.05;100.00;97189.38;5111183;28;20218;-66
2021/12/26 03:47:38;;;;;;;23.73;15.07;;;;;;;4.01;100.00;97193.09;5111148;28;20226;-66
2021/12/26 03:50:07;;;;;;;24.17;14.37;;;;;;;4.01;100.00;97187.88;5110717;28;20269;-66
2021/12/26 03:52:34;;;;;;;24.80;15.13;;;;;;;4.03;100.00;97187.78;5112239;28;20733;-66
2021/12/26 03:55:01;;;;;;;23.23;15.10;;;;;;;4.00;100.00;97194.03;5101335;28;20212;-66
2021/12/26 03:57:27;;;;;;;25.60;15.47;;;;;;;3.93;100.00;97190.09;5098380;28;20234;-66
2021/12/26 03:59:54;;;;;;;24.93;16.30;;;;;;;3.93;100.00;97186.63;5097495;28;20575;-66
2021/12/26 04:02:22;;;;;;;26.73;16.07;;;;;;;3.90;100.00;97190.25;5097203;28;20223;-66
2021/12/26 04:04:48;;;;;;;27.07;16.73;;;;;;;3.96;100.00;97189.03;5098483;28;20207;-66
2021/12/26 04:07:15;;;;;;;26.63;15.77;;;;;;;3.96;100.00;97184.66;5100621;28;20214;-66
2021/12/26 04:09:41;;;;;;;24.93;15.67;;;;;;;4.01;100.00;97193.09;5108621;28;20590;-66
2021/12/26 04:12:09;;;;;;;24.90;15.27;;;;;;;4.01;100.00;97190.47;5097265;28;20233;-66
2021/12/26 04:14:35;;;;;;;24.30;14.93;;;;;;;3.99;100.00;97189.75;5097388;28;20219;-66
2021/12/26 04:17:02;;;;;;;24.80;15.20;;;;;;;4.01;100.00;97181.78;5097239;28;20702;-67
2021/12/26 04:19:30;;;;;;;25.97;16.03;;;;;;;4.02;100.00;97180.84;5096808;28;20245;-66
2021/12/26 04:21:57;;;;;;;25.90;15.67;;;;;;;4.04;100.00;97186.84;5097150;28;20219;-67
2021/12/26 04:24:23;;;;;;;23.17;15.30;;;;;;;4.05;100.00;97184.16;5097465;28;20212;-66
2021/12/26 04:26:50;;;;;;;23.87;14.60;;;;;;;4.05;100.00;97188.53;5099391;28;20211;-66
2021/12/26 04:29:16;;;;;;;24.57;15.33;;;;;;;4.07;100.00;97182.28;5096873;28;20568;-66
2021/12/26 04:31:43;;;;;;;25.33;15.53;;;;;;;4.07;100.00;97174.44;5096881;28;20211;-66
2021/12/26 04:34:09;;;;;;;25.23;15.30;;;;;;;4.07;100.00;97187.50;5096521;28;20211;-66
2021/12/26 04:36:37;;;;;;;24.17;16.03;;;;;;;4.07;100.00;97182.28;5099236;28;20222;-66
2021/12/26 04:39:05;;;;;;;26.73;16.10;;;;;;;4.08;100.00;97178.72;5096724;28;20234;-66
2021/12/26 04:41:31;;;;;;;25.53;15.93;;;;;;;4.09;100.00;97190.03;5096599;28;20223;-66
2021/12/26 04:43:58;;;;;;;22.73;15.03;;;;;;;4.05;100.00;97188.53;5094868;28;20694;-66
2021/12/26 04:46:25;;;;;;;25.03;15.20;;;;;;;4.07;100.00;97182.28;5099546;28;20225;-66
2021/12/26 04:48:51;;;;;;;22.83;14.23;;;;;;;4.04;100.00;97181.63;5096817;28;20223;-66
2021/12/26 04:51:18;;;;;;;23.90;14.80;;;;;;;4.06;100.00;97187.59;5096759;28;20207;-66
2021/12/26 04:53:45;;;;;;;23.17;14.33;;;;;;;4.02;100.00;97189.53;5096228;28;20667;-66
2021/12/26 04:56:12;;;;;;;21.73;13.87;;;;;;;4.02;100.00;97189.53;5098397;28;20207;-66
2021/12/26 04:58:39;;;;;;;21.60;14.37;;;;;;;4.06;100.00;97185.81;5096060;28;20707;-66
2021/12/26 05:01:06;;;;;;;24.13;14.93;;;;;;;4.03;100.00;97186.00;5096153;28;20230;-66
2021/12/26 05:03:33;;;;;;;23.60;14.80;;;;;;;4.07;100.00;97186.66;5096482;28;20210;-66
2021/12/26 05:05:59;;;;;;;21.23;14.03;;;;;;;4.08;100.00;97183.09;5099099;28;20214;-66
2021/12/26 05:08:25;;;;;;;20.67;13.97;;;;;;;4.11;100.00;97183.78;5099429;28;20222;-66
2021/12/26 05:10:55;;;;;;;19.33;12.37;;;;;;;4.10;100.00;97189.94;5096285;28;20218;-66
2021/12/26 05:13:22;;;;;;;20.27;13.40;;;;;;;4.09;100.00;97190.88;5096175;28;20601;-66
2021/12/26 05:15:49;;;;;;;22.67;13.53;;;;;;;4.06;100.00;97187.59;5098878;28;20214;-66
2021/12/26 05:18:15;;;;;;;19.80;12.37;;;;;;;4.08;100.00;97183.97;5096094;28;20617;-67
2021/12/26 05:20:42;;;;;;;20.07;12.87;;;;;;;4.09;100.00;97188.25;5095885;28;20574;-66
2021/12/26 05:23:08;;;;;;;22.40;13.10;;;;;;;4.12;100.00;97185.47;5095939;28;20207;-66
2021/12/26 05:25:35;;;;;;;17.60;11.80;;;;;;;4.12;100.00;97188.09;5098372;28;20210;-66
2021/12/26 05:28:03;;;;;;;17.73;12.80;;;;;;;4.12;100.00;97185.47;5096356;28;20697;-66
2021/12/26 05:30:30;;;;;;;19.57;12.60;;;;;;;4.12;100.00;97185.47;5096136;28;20246;-66
2021/12/26 05:32:57;;;;;;;17.80;11.63;;;;;;;4.13;100.00;97181.06;5095967;28;20212;-66
2021/12/26 05:35:24;;;;;;;17.67;11.87;;;;;;;4.11;100.00;97175.94;5096470;28;20215;-66
2021/12/26 05:37:51;;;;;;;20.63;12.63;;;;;;;4.13;100.00;97181.91;5096286;28;20294;-66
2021/12/26 05:40:17;;;;;;;18.60;12.70;;;;;;;4.14;100.00;97174.91;5095950;28;20228;-66
2021/12/26 05:42:44;;;;;;;17.77;11.63;;;;;;;4.17;100.00;97188.63;5095619;28;20677;-66
2021/12/26 05:45:13;;;;;;;17.17;11.77;;;;;;;4.18;100.00;97179.88;5097333;28;20212;-66
2021/12/26 05:47:40;;;;;;;17.97;12.17;;;;;;;4.19;100.00;97186.78;5096788;28;20220;-66
2021/12/26 05:50:08;;;;;;;20.73;13.83;;;;;;;4.23;100.00;97187.44;5105922;28;20622;-66
2021/12/26 05:52:35;;;;;;;24.70;14.83;;;;;;;4.23;100.00;97180.41;5095882;28;20588;-66
2021/12/26 05:55:01;;;;;;;28.43;16.30;;;;;;;4.22;100.00;97181.38;5097158;28;20221;-66
2021/12/26 05:57:28;;;;;;;26.70;15.30;;;;;;;4.16;100.00;97186.94;5096302;28;20210;-66
2021/12/26 05:59:54;;;;;;;27.77;16.80;;;;;;;4.10;100.00;97174.25;5093908;28;20250;-66
2021/12/26 06:02:23;;;;;;;26.93;16.17;;;;;;;4.10;100.00;97176.84;5095539;28;20214;-67
2021/12/26 06:04:50;;;;;;;25.63;15.13;;;;;;;4.10;100.00;97179.47;5096830;28;20227;-67
2021/12/26 06:07:17;;;;;;;25.83;15.37;;;;;;;4.08;100.00;97177.88;5099302;28;20214;-66
2021/12/26 06:09:43;;;;;;;28.20;16.50;;;;;;;4.09;100.00;97174.34;5110551;28;20218;-67
2021/12/26 06:12:10;;;;;;;26.20;16.20;;;;;;;4.08;100.00;97176.13;5099729;28;20206;-67
2021/12/26 06:14:37;;;;;;;25.33;15.60;;;;;;;4.09;100.00;97175.19;5100809;28;20227;-67
2021/12/26 06:17:04;;;;;;;29.10;16.87;;;;;;;4.14;100.00;97175.75;5101039;28;20239;-67
2021/12/26 06:19:32;;;;;;;26.23;16.57;;;;;;;4.18;100.00;97184.25;5099285;28;20240;-67
2021/12/26 06:21:58;;;;;;;30.43;17.17;;;;;;;4.21;100.00;97184.91;5099207;28;20222;-67
2021/12/26 06:24:25;;;;;;;27.87;16.93;;;;;;;4.21;100.00;97182.28;5100198;28;20218;-67
2021/12/26 06:26:52;;;;;;;27.97;16.67;;;;;;;4.20;100.00;97175.38;5099441;28;20264;-67
2021/12/26 06:29:18;;;;;;;27.80;16.53;;;;;;;4.20;100.00;97175.38;5099062;28;20210;-67
2021/12/26 06:31:44;;;;;;;29.57;17.63;;;;;;;4.18;100.00;97182.50;5099424;28;20214;-67
2021/12/26 06:34:11;;;;;;;26.13;15.83;;;;;;;4.20;100.00;97177.16;5099364;28;20218;-67
2021/12/26 06:36:39;;;;;;;26.53;16.03;;;;;;;4.17;100.00;97191.25;5101394;28;20607;-67
2021/12/26 06:39:06;;;;;;;27.97;17.60;;;;;;;4.17;100.00;97193.03;5099124;28;20243;-67
2021/12/26 06:41:33;;;;;;;28.73;16.67;;;;;;;4.18;100.00;97185.13;5099085;28;20222;-67
2021/12/26 06:43:59;;;;;;;26.77;16.60;;;;;;;4.13;100.00;97186.28;5098732;28;20244;-67
2021/12/26 06:46:26;;;;;;;28.73;17.27;;;;;;;4.10;100.00;97182.09;5110819;28;20693;-67
2021/12/26 06:48:52;;;;;;;26.90;16.73;;;;;;;4.14;100.00;97194.06;5113907;28;20548;-67
2021/12/26 06:51:20;;;;;;;27.50;16.13;;;;;;;4.17;100.00;97187.81;5113737;28;20211;-67
2021/12/26 06:53:47;;;;;;;29.57;17.67;;;;;;;4.20;100.00;97198.94;5112025;28;20211;-67
2021/12/26 06:56:14;;;;;;;28.67;16.40;;;;;;;4.16;100.00;97192.19;5110774;28;20231;-67
2021/12/26 06:58:40;;;;;;;28.87;16.77;;;;;;;4.18;100.00;97198.19;5113688;28;20255;-67
2021/12/26 07:01:07;;;;;;;30.07;15.13;;;;;;;4.21;100.00;97203.22;5113485;28;20224;-67
2021/12/26 07:03:33;;;;;;;27.53;15.50;;;;;;;4.19;100.00;97205.09;5113149;28;20697;-67
2021/12/26 07:06:00;;;;;;;26.80;17.07;;;;;;;4.23;100.00;97201.34;5110638;28;20214;-67
2021/12/26 07:08:26;;;;;;;27.67;16.23;;;;;;;4.21;100.00;97205.84;5111712;28;20202;-68
2021/12/26 07:10:54;;;;;;;27.20;16.07;;;;;;;4.25;100.00;97204.72;5113422;28;20215;-67
2021/12/26 07:13:21;;;;;;;28.27;16.00;;;;;;;4.29;100.00;97208.84;5113258;28;20210;-67
2021/12/26 07:15:47;;;;;;;24.17;14.87;;;;;;;4.29;100.00;97198.38;5110056;28;20685;-67
2021/12/26 07:18:14;;;;;;;23.90;15.17;;;;;;;4.29;100.00;97198.38;5111457;28;20212;-67
2021/12/26 07:20:41;;;;;;;24.27;15.40;;;;;;;4.30;100.00;97202.69;5112655;28;20218;-67
2021/12/26 07:23:08;;;;;;;20.77;14.00;;;;;;;4.30;100.00;97205.31;5112795;28;20219;-67
2021/12/26 07:25:34;;;;;;;22.77;13.90;;;;;;;4.32;100.00;97207.81;5110663;28;20214;-67
2021/12/26 07:28:03;;;;;;;23.33;13.90;;;;;;;4.36;100.00;97211.94;5112572;28;20238;-67
2021/12/26 07:30:30;;;;;;;22.50;13.67;;;;;;;4.38;100.00;97213.53;5112538;28;20601;-67
2021/12/26 07:32:56;;;;;;;22.63;12.97;;;;;;;4.39;100.00;97214.38;5113128;28;20227;-67
2021/12/26 07:35:24;;;;;;;20.30;13.07;;;;;;;4.35;100.00;97213.69;5110722;28;20215;-67
2021/12/26 07:37:52;;;;;;;20.17;13.57;;;;;;;4.32;100.00;97213.91;5113663;28;20688;-67
2021/12/26 07:40:19;;;;;;;21.60;12.93;;;;;;;4.26;100.00;97214.25;5112674;28;20572;-67
2021/12/26 07:42:46;;;;;;;20.63;12.83;;;;;;;4.26;100.00;97224.72;5112857;28;20222;-67
2021/12/26 07:45:14;;;;;;;19.67;13.03;;;;;;;4.30;100.00;97226.22;5108725;28;20263;-67
2021/12/26 07:47:41;;;;;;;19.53;12.70;;;;;;;4.31;100.00;97227.91;5112482;28;20558;-67
2021/12/26 07:50:08;;;;;;;20.23;13.23;;;;;;;4.35;100.00;97232.00;5112392;28;20218;-67
2021/12/26 07:52:40;;;;;;;20.33;13.10;;;;;;;4.34;100.00;97222.47;5112691;28;20206;-67
2021/12/26 07:55:10;;;;;;;19.13;13.50;;;;;;;4.41;100.00;97234.25;5109539;28;20237;-67
2021/12/26 07:57:36;;;;;;;20.17;12.63;;;;;;;4.46;100.00;97232.22;5097977;28;20219;-67
2021/12/26 08:00:05;;;;;;;20.20;12.73;;;;;;;4.44;100.00;97228.88;5097567;28;20241;-67
2021/12/26 08:02:32;;;;;;;18.80;12.57;;;;;;;4.40;100.00;97227.34;5097572;28;20207;-67
2021/12/26 08:04:59;;;;;;;19.67;12.77;;;;;;;4.42;100.00;97225.50;5100022;28;20242;-67
2021/12/26 08:07:25;;;;;;;21.07;14.47;;;;;;;4.40;100.00;97232.59;5100240;28;20210;-67
2021/12/26 08:09:52;;;;;;;20.87;14.20;;;;;;;4.44;100.00;97236.72;5105182;28;20211;-67
2021/12/26 08:12:18;;;;;;;21.07;14.50;;;;;;;4.46;100.00;97236.63;5096961;28;20583;-67
2021/12/26 08:14:45;;;;;;;21.33;13.53;;;;;;;4.46;100.00;97247.09;5099921;28;20221;-67
2021/12/26 08:17:11;;;;;;;21.53;13.20;;;;;;;4.43;100.00;97242.88;5097289;28;20218;-67
2021/12/26 08:19:40;;;;;;;20.63;13.20;;;;;;;4.40;100.00;97237.81;5097075;28;20238;-67
2021/12/26 08:22:06;;;;;;;20.93;13.43;;;;;;;4.41;100.00;97238.66;5096992;28;20243;-67
2021/12/26 08:24:33;;;;;;;21.43;13.27;;;;;;;4.42;100.00;97241.22;5099100;28;20215;-67
2021/12/26 08:26:59;;;;;;;21.63;13.53;;;;;;;4.45;100.00;97235.78;5097287;28;20219;-67
2021/12/26 08:29:26;;;;;;;21.90;13.60;;;;;;;4.49;100.00;97241.66;5096727;28;20250;-67
2021/12/26 08:31:56;;;;;;;20.90;13.00;;;;;;;4.52;100.00;97244.94;5095849;28;20207;-67
2021/12/26 08:34:23;;;;;;;21.97;13.37;;;;;;;4.56;100.00;97233.38;5098787;28;20669;-67
2021/12/26 08:36:58;;;;;;;21.10;13.50;;;;;;;4.58;100.00;97239.34;5095160;28;20245;-67
2021/12/26 08:39:25;;;;;;;21.77;12.93;;;;;;;4.62;100.00;97238.25;5096502;28;20234;-67
2021/12/26 08:41:52;;;;;;;18.87;12.30;;;;;;;4.64;100.00;97236.38;5096734;28;20215;-67
2021/12/26 08:44:19;;;;;;;20.00;13.20;;;;;;;4.63;100.00;97232.06;5099750;28;20264;-67
2021/12/26 08:46:46;;;;;;;20.20;12.63;;;;;;;4.64;100.00;97236.38;5096347;28;20224;-66
2021/12/26 08:49:13;;;;;;;19.57;13.03;;;;;;;4.64;100.00;97231.13;5096663;28;20206;-66
2021/12/26 08:51:41;;;;;;;19.83;12.63;;;;;;;4.69;100.00;97229.09;5096573;28;20234;-66
2021/12/26 08:54:09;;;;;;;19.00;12.47;;;;;;;4.72;100.00;97234.16;5112034;28;20224;-66
2021/12/26 08:56:36;;;;;;;18.40;12.13;;;;;;;4.78;100.00;97228.53;5096269;28;20697;-66
2021/12/26 08:59:03;;;;;;;17.27;12.00;;;;;;;4.82;100.00;97235.25;5096295;28;20212;-66
2021/12/26 09:01:29;;;;;;;18.93;12.10;;;;;;;4.83;100.00;97236.94;5096090;28;20586;-66
2021/12/26 09:03:56;;;;;;;19.33;12.00;;;;;;;4.86;100.00;97239.38;5096930;28;20223;-66
2021/12/26 09:06:22;;;;;;;20.97;12.40;;;;;;;4.90;100.00;97233.00;5096346;28;20216;-67
2021/12/26 09:08:49;;;;;;;21.63;13.37;;;;;;;4.92;100.00;97235.53;5100280;28;20212;-66
2021/12/26 09:11:17;;;;;;;20.60;12.53;;;;;;;4.96;100.00;97242.28;5095924;28;20677;-67
2021/12/26 09:13:44;;;;;;;20.30;12.53;;;;;;;5.03;100.00;97244.44;5098465;28;20219;-66
2021/12/26 09:16:11;;;;;;;21.80;13.10;;;;;;;5.14;100.00;97241.16;5096012;28;20687;-66
2021/12/26 09:18:38;;;;;;;18.83;11.97;;;;;;;5.23;100.00;97241.44;5095946;28;20215;-67
2021/12/26 09:21:05;;;;;;;21.27;13.13;;;;;;;5.30;100.00;97247.09;5096071;28;20240;-66
2021/12/26 09:23:31;;;;;;;19.20;11.87;;;;;;;5.31;100.00;97249.63;5097922;28;20216;-66
2021/12/26 09:25:58;;;;;;;18.37;11.80;;;;;;;5.33;100.00;97253.03;5096667;28;20219;-66
2021/12/26 09:28:28;;;;;;;20.37;13.13;;;;;;;5.39;100.00;97251.78;5094379;28;20212;-66
2021/12/26 09:30:54;;;;;;;19.87;13.10;;;;;;;5.40;100.00;97258.69;5096216;28;20244;-66
2021/12/26 09:33:21;;;;;;;22.07;13.30;;;;;;;5.43;100.00;97264.59;5097973;28;20219;-67
2021/12/26 09:35:48;;;;;;;22.50;14.20;;;;;;;5.46;100.00;97259.19;5096318;28;20231;-67
2021/12/26 09:38:14;;;;;;;23.77;14.23;;;;;;;5.51;100.00;97266.75;5095886;28;20212;-67
2021/12/26 09:40:41;;;;;;;24.30;14.97;;;;;;;5.58;100.00;97265.41;5095752;28;20243;-67
2021/12/26 09:43:07;;;;;;;21.70;13.43;;;;;;;5.65;100.00;97270.19;5096779;28;20219;-67
2021/12/26 09:45:35;;;;;;;21.27;13.77;;;;;;;5.72;100.00;97260.97;5096628;28;20223;-67
2021/12/26 09:48:02;;;;;;;24.27;14.83;;;;;;;5.74;100.00;97264.34;5095532;28;20212;-67
2021/12/26 09:50:28;;;;;;;21.50;13.43;;;;;;;5.76;100.00;97261.63;5095818;28;20219;-67
2021/12/26 09:52:55;;;;;;;20.73;13.20;;;;;;;5.74;100.00;97258.28;5096652;28;20699;-67
2021/12/26 09:55:22;;;;;;;19.97;13.53;;;;;;;5.70;100.00;97246.28;5095495;28;20215;-67
2021/12/26 09:57:49;;;;;;;19.30;13.37;;;;;;;5.70;100.00;97249.75;5095761;28;20595;-67
2021/12/26 10:00:25;;;;;;;19.87;13.07;;;;;;;5.71;100.00;97243.56;5095601;28;20244;-67
2021/12/26 10:03:16;;;;;;;20.20;13.20;;;;;;;5.83;100.00;97252.47;5097330;28;20232;-67
2021/12/26 10:06:02;;;;;;;21.00;14.07;;;;;;;6.00;100.00;97245.22;5095288;28;20702;-67
2021/12/26 10:08:29;;;;;;;16.30;11.90;;;;;;;6.17;100.00;97237.03;5107032;28;20207;-67
2021/12/26 10:11:12;;;;;;;20.33;12.17;;;;;;;6.30;100.00;97230.03;5098126;28;20220;-67
2021/12/26 10:13:41;;;;;;;21.47;13.00;;;;;;;6.37;100.00;97228.72;5095537;28;20218;-67
2021/12/26 10:16:08;;;;;;;19.90;13.40;;;;;;;6.41;100.00;97227.56;5095250;28;20226;-67
2021/12/26 10:18:39;;;;;;;20.20;12.73;;;;;;;6.43;100.00;97219.59;5097336;28;20221;-67
2021/12/26 10:21:38;;;;;;;21.57;14.00;;;;;;;6.52;100.00;97221.56;5093621;28;20272;-67
2021/12/26 10:24:08;;;;;;;21.17;14.40;;;;;;;6.58;100.00;97222.00;5095244;28;20213;-67
2021/12/26 10:26:37;;;;;;;21.80;14.57;;;;;;;6.56;100.00;97202.91;5097981;28;20709;-67
2021/12/26 10:29:09;;;;;;;20.43;13.97;;;;;;;6.54;100.00;97210.03;5094853;28;20674;-67
2021/12/26 10:31:38;;;;;;;20.40;12.97;;;;;;;6.67;100.00;97210.91;5095383;28;20589;-67
2021/12/26 10:34:06;;;;;;;19.33;13.03;;;;;;;6.82;100.00;97209.84;5095766;28;20220;-67
2021/12/26 10:36:33;;;;;;;19.70;13.73;;;;;;;6.90;100.00;97210.13;5107743;28;20207;-67
2021/12/26 10:39:12;;;;;;;19.90;13.77;;;;;;;6.97;100.00;97206.13;5109856;28;20697;-67
2021/12/26 10:41:43;;;;;;;19.40;13.80;;;;;;;7.07;100.00;97204.56;5110077;28;20243;-67
2021/12/26 10:44:27;;;;;;;20.53;13.83;;;;;;;7.17;100.00;97207.38;5107673;28;20670;-67
2021/12/26 10:46:56;;;;;;;20.73;14.63;;;;;;;7.26;100.00;97212.00;5093438;28;20227;-67
2021/12/26 10:49:30;;;;;;;17.40;12.23;;;;;;;7.32;100.00;97207.16;5095360;28;20562;-67
2021/12/26 10:51:57;;;;;;;17.97;12.87;;;;;;;7.33;100.00;97200.94;5096683;28;20555;-67
2021/12/26 10:54:31;;;;;;;19.13;12.63;;;;;;;7.33;100.00;97211.44;5097258;28;20579;-66
2021/12/26 10:57:06;;;;;;;18.03;12.63;;;;;;;7.33;100.00;97206.19;5098845;28;20222;-67
2021/12/26 10:59:33;;;;;;;17.40;12.23;;;;;;;7.31;100.00;97213.34;5098568;28;20213;-67
2021/12/26 11:01:59;;;;;;;16.70;11.83;;;;;;;7.29;100.00;97205.56;5101498;28;20225;-67
2021/12/26 11:04:26;;;;;;;16.83;12.23;;;;;;;7.32;100.00;97212.41;5098727;28;20221;-67
2021/12/26 11:07:05;;;;;;;17.00;11.33;;;;;;;7.33;100.00;97211.44;5098532;28;20698;-67
2021/12/26 11:09:32;;;;;;;16.13;10.93;;;;;;;7.32;100.00;97199.25;5098711;28;20244;-66
2021/12/26 11:12:05;;;;;;;14.50;10.67;;;;;;;7.33;100.00;97207.03;5099457;28;20216;-66
2021/12/26 11:14:32;;;;;;;14.17;10.53;;;;;;;7.38;100.00;97200.63;5098409;28;20577;-67
2021/12/26 11:16:58;;;;;;;14.57;11.23;;;;;;;7.39;100.00;97195.25;5098406;28;20218;-67
2021/12/26 11:19:42;;;;;;;15.07;11.27;;;;;;;7.41;100.00;97193.38;5099128;28;20236;-66
2021/12/26 11:22:10;;;;;;;17.43;11.03;;;;;;;7.43;100.00;97191.44;5098147;28;20271;-66